createdAt,value
2023-05-21T00:00:52.513Z,12.32
2023-05-21T00:01:52.492Z,12.31
2023-05-21T00:02:52.552Z,12.31
2023-05-21T00:03:55.609Z,12.29
2023-05-21T00:04:52.481Z,12.31
2023-05-21T00:05:52.505Z,12.29
2023-05-21T00:06:52.520Z,12.29
2023-05-21T00:07:52.437Z,12.28
2023-05-21T00:08:52.420Z,12.28
2023-05-21T00:09:52.416Z,12.29
2023-05-21T00:10:52.432Z,12.29
2023-05-21T00:11:52.421Z,12.29
2023-05-21T00:12:52.396Z,12.27
2023-05-21T00:13:52.399Z,12.28
2023-05-21T00:14:52.380Z,12.28
2023-05-21T00:15:52.440Z,12.24
2023-05-21T00:16:52.642Z,12.22
2023-05-21T00:17:52.353Z,12.22
2023-05-21T00:18:55.379Z,12.20
2023-05-21T00:19:52.310Z,12.18
2023-05-21T00:20:52.322Z,12.15
2023-05-21T00:21:52.431Z,12.13
2023-05-21T00:22:52.279Z,12.12
2023-05-21T00:23:52.267Z,12.12
2023-05-21T00:24:52.281Z,12.10
2023-05-21T00:25:52.245Z,12.10
2023-05-21T00:26:52.231Z,12.13
2023-05-21T00:27:52.216Z,12.12
2023-05-21T00:28:52.247Z,12.12
2023-05-21T00:29:52.206Z,12.12
2023-05-21T00:30:52.219Z,12.13
2023-05-21T00:31:52.244Z,12.12
2023-05-21T00:32:52.285Z,12.13
2023-05-21T00:33:55.199Z,12.13
2023-05-21T00:34:52.155Z,12.13
2023-05-21T00:35:52.166Z,12.13
2023-05-21T00:36:52.182Z,12.13
2023-05-21T00:37:52.154Z,12.13
2023-05-21T00:38:52.151Z,12.13
2023-05-21T00:39:52.106Z,12.12
2023-05-21T00:40:52.108Z,12.12
2023-05-21T00:41:52.096Z,12.10
2023-05-21T00:42:52.119Z,12.10
2023-05-21T00:43:52.056Z,12.10
2023-05-21T00:44:52.066Z,12.09
2023-05-21T00:45:52.079Z,12.12
2023-05-21T00:46:52.040Z,12.10
2023-05-21T00:47:52.108Z,12.10
2023-05-21T00:48:54.995Z,12.09
2023-05-21T00:49:52.016Z,12.10
2023-05-21T00:50:52.012Z,12.10
2023-05-21T00:51:51.994Z,12.10
2023-05-21T00:52:51.992Z,12.12
2023-05-21T00:53:51.978Z,12.12
2023-05-21T00:54:51.926Z,12.12
2023-05-21T00:55:51.963Z,12.15
2023-05-21T00:56:51.977Z,12.15
2023-05-21T00:57:51.934Z,12.13
2023-05-21T00:58:52.035Z,12.13
2023-05-21T00:59:51.876Z,12.13
2023-05-21T01:00:51.889Z,12.13
2023-05-21T01:01:51.864Z,12.13
2023-05-21T01:02:51.993Z,12.13
2023-05-21T01:03:54.885Z,12.13
2023-05-21T01:04:51.877Z,12.13
2023-05-21T01:05:51.818Z,12.15
2023-05-21T01:06:51.810Z,12.15
2023-05-21T01:07:51.831Z,12.15
2023-05-21T01:08:51.905Z,12.15
2023-05-21T01:09:51.794Z,12.15
2023-05-21T01:10:51.788Z,12.15
2023-05-21T01:11:51.790Z,12.15
2023-05-21T01:12:51.755Z,12.15
2023-05-21T01:13:51.725Z,12.15
2023-05-21T01:14:51.744Z,12.15
2023-05-21T01:15:51.713Z,12.15
2023-05-21T01:16:51.784Z,12.15
2023-05-21T01:17:51.790Z,12.15
2023-05-21T01:18:54.746Z,12.15
2023-05-21T01:19:51.755Z,12.17
2023-05-21T01:20:51.770Z,12.15
2023-05-21T01:21:51.661Z,12.17
2023-05-21T01:22:51.646Z,12.17
2023-05-21T01:24:51.645Z,12.20
2023-05-21T01:25:51.595Z,12.20
2023-05-21T01:26:51.605Z,12.22
2023-05-21T01:27:51.637Z,12.24
2023-05-21T01:28:51.573Z,12.25
2023-05-21T01:29:51.594Z,12.28
2023-05-21T01:30:51.578Z,12.28
2023-05-21T01:31:51.589Z,12.29
2023-05-21T01:32:51.594Z,12.31
2023-05-21T01:33:54.615Z,12.31
2023-05-21T01:34:55.334Z,12.32
2023-05-21T01:35:51.509Z,12.35
2023-05-21T01:36:55.655Z,12.35
2023-05-21T01:37:51.513Z,12.32
2023-05-21T01:38:51.459Z,12.36
2023-05-21T01:39:51.482Z,12.37
2023-05-21T01:40:51.453Z,12.36
2023-05-21T01:41:51.465Z,12.37
2023-05-21T01:42:51.490Z,12.39
2023-05-21T01:43:51.461Z,12.40
2023-05-21T01:44:51.428Z,12.39
2023-05-21T01:45:51.392Z,12.40
2023-05-21T01:46:51.434Z,12.42
2023-05-21T01:47:51.481Z,12.42
2023-05-21T01:48:54.387Z,12.42
2023-05-21T01:49:51.355Z,12.42
2023-05-21T01:50:51.357Z,12.42
2023-05-21T01:51:51.355Z,12.42
2023-05-21T01:52:51.357Z,12.43
2023-05-21T01:53:51.319Z,12.42
2023-05-21T01:54:51.317Z,12.42
2023-05-21T01:55:51.324Z,12.40
2023-05-21T01:56:51.276Z,12.39
2023-05-21T01:57:51.314Z,12.36
2023-05-21T01:58:51.271Z,12.35
2023-05-21T01:59:51.250Z,12.35
2023-05-21T02:00:51.232Z,12.32
2023-05-21T02:01:51.323Z,12.35
2023-05-21T02:02:51.261Z,12.35
2023-05-21T02:03:54.422Z,12.32
2023-05-21T02:04:51.199Z,12.29
2023-05-21T02:05:51.236Z,12.27
2023-05-21T02:06:51.183Z,12.25
2023-05-21T02:07:51.167Z,12.22
2023-05-21T02:08:51.186Z,12.22
2023-05-21T02:09:51.150Z,12.21
2023-05-21T02:10:51.157Z,12.18
2023-05-21T02:11:51.137Z,12.15
2023-05-21T02:12:51.153Z,12.13
2023-05-21T02:13:51.105Z,12.12
2023-05-21T02:14:51.114Z,12.12
2023-05-21T02:15:51.116Z,12.10
2023-05-21T02:16:51.091Z,12.07
2023-05-21T02:17:51.170Z,12.04
2023-05-21T02:18:54.059Z,12.03
2023-05-21T02:19:51.096Z,12.03
2023-05-21T02:20:51.024Z,12.02
2023-05-21T02:21:51.021Z,12.02
2023-05-21T02:22:51.013Z,12.00
2023-05-21T02:23:51.014Z,11.99
2023-05-21T02:24:51.009Z,11.97
2023-05-21T02:25:51.010Z,11.95
2023-05-21T02:26:50.974Z,11.95
2023-05-21T02:27:51.017Z,11.95
2023-05-21T02:28:50.983Z,11.97
2023-05-21T02:29:50.984Z,11.97
2023-05-21T02:30:50.967Z,11.99
2023-05-21T02:31:50.922Z,12.00
2023-05-21T02:32:50.968Z,11.99
2023-05-21T02:33:53.940Z,11.99
2023-05-21T02:34:50.892Z,11.97
2023-05-21T02:35:50.906Z,11.95
2023-05-21T02:36:50.866Z,11.95
2023-05-21T02:37:50.877Z,11.97
2023-05-21T02:38:50.896Z,11.95
2023-05-21T02:39:50.865Z,11.95
2023-05-21T02:40:50.823Z,11.95
2023-05-21T02:41:50.894Z,11.95
2023-05-21T02:42:50.824Z,11.94
2023-05-21T02:43:50.820Z,11.94
2023-05-21T02:44:50.780Z,11.91
2023-05-21T02:45:50.806Z,11.91
2023-05-21T02:46:50.800Z,11.90
2023-05-21T02:47:50.843Z,11.90
2023-05-21T02:48:53.774Z,11.86
2023-05-21T02:49:50.765Z,11.86
2023-05-21T02:50:50.730Z,11.83
2023-05-21T02:51:50.706Z,11.83
2023-05-21T02:52:55.893Z,11.83
2023-05-21T02:53:50.737Z,11.83
2023-05-21T02:54:50.707Z,11.83
2023-05-21T02:55:50.696Z,11.83
2023-05-21T02:56:50.676Z,11.84
2023-05-21T02:57:50.715Z,11.83
2023-05-21T02:58:50.654Z,11.83
2023-05-21T02:59:50.607Z,11.84
2023-05-21T03:00:50.638Z,11.83
2023-05-21T03:01:50.707Z,11.81
2023-05-21T03:02:50.669Z,11.80
2023-05-21T03:03:53.686Z,11.75
2023-05-21T03:04:50.512Z,11.73
2023-05-21T03:05:50.590Z,11.72
2023-05-21T03:06:50.587Z,11.70
2023-05-21T03:07:50.546Z,11.70
2023-05-21T03:08:50.541Z,11.69
2023-05-21T03:09:50.502Z,11.69
2023-05-21T03:11:50.522Z,11.68
2023-05-21T03:12:50.509Z,11.66
2023-05-21T03:13:50.509Z,11.68
2023-05-21T03:14:50.506Z,11.65
2023-05-21T03:15:50.434Z,11.65
2023-05-21T03:16:50.455Z,11.63
2023-05-21T03:17:50.436Z,11.62
2023-05-21T03:18:53.470Z,11.59
2023-05-21T03:19:50.393Z,11.60
2023-05-21T03:21:50.362Z,11.59
2023-05-21T03:22:50.328Z,11.57
2023-05-21T03:23:50.308Z,11.55
2023-05-21T03:24:50.488Z,11.59
2023-05-21T03:25:50.289Z,11.52
2023-05-21T03:26:50.320Z,11.51
2023-05-21T03:27:50.262Z,11.50
2023-05-21T03:28:50.289Z,11.50
2023-05-21T03:29:50.268Z,11.47
2023-05-21T03:30:50.236Z,11.47
2023-05-21T03:31:50.264Z,11.47
2023-05-21T03:32:50.249Z,11.44
2023-05-21T03:33:53.216Z,11.44
2023-05-21T03:34:50.332Z,11.41
2023-05-21T03:35:50.217Z,11.41
2023-05-21T03:36:50.203Z,11.40
2023-05-21T03:37:50.190Z,11.37
2023-05-21T03:38:50.165Z,11.37
2023-05-21T03:39:50.154Z,11.36
2023-05-21T03:40:50.193Z,11.35
2023-05-21T03:41:50.134Z,11.33
2023-05-21T03:42:50.156Z,11.33
2023-05-21T03:43:50.123Z,11.32
2023-05-21T03:44:50.126Z,11.30
2023-05-21T03:45:50.480Z,11.26
2023-05-21T03:46:50.101Z,11.23
2023-05-21T03:47:50.109Z,11.22
2023-05-21T03:48:53.104Z,11.23
2023-05-21T03:49:50.059Z,11.19
2023-05-21T03:50:50.058Z,11.19
2023-05-21T03:51:50.026Z,11.19
2023-05-21T03:52:50.045Z,11.18
2023-05-21T03:53:50.001Z,11.22
2023-05-21T03:54:49.990Z,11.19
2023-05-21T03:55:50.049Z,11.19
2023-05-21T03:56:50.415Z,11.19
2023-05-21T03:57:49.984Z,11.18
2023-05-21T03:59:50.005Z,11.18
2023-05-21T04:00:49.931Z,11.17
2023-05-21T04:01:49.950Z,11.18
2023-05-21T04:02:50.024Z,11.17
2023-05-21T04:03:53.082Z,11.17
2023-05-21T04:04:49.962Z,11.18
2023-05-21T04:05:49.924Z,11.17
2023-05-21T04:06:49.882Z,11.17
2023-05-21T04:07:49.877Z,11.17
2023-05-21T04:08:49.878Z,11.17
2023-05-21T04:09:49.830Z,11.17
2023-05-21T04:10:49.856Z,11.18
2023-05-21T04:11:49.847Z,11.17
2023-05-21T04:12:49.819Z,11.17
2023-05-21T04:13:49.814Z,11.17
2023-05-21T04:14:49.795Z,11.14
2023-05-21T04:15:49.820Z,11.15
2023-05-21T04:16:49.780Z,11.14
2023-05-21T04:17:49.753Z,11.14
2023-05-21T04:18:52.794Z,11.14
2023-05-21T04:19:49.717Z,11.14
2023-05-21T04:20:49.739Z,11.14
2023-05-21T04:21:49.724Z,11.12
2023-05-21T04:22:49.744Z,11.14
2023-05-21T04:23:49.678Z,11.11
2023-05-21T04:24:49.665Z,11.11
2023-05-21T04:25:49.690Z,11.12
2023-05-21T04:26:49.683Z,11.14
2023-05-21T04:27:49.673Z,11.14
2023-05-21T04:28:49.656Z,11.15
2023-05-21T04:29:50.763Z,11.17
2023-05-21T04:30:49.598Z,11.19
2023-05-21T04:31:49.820Z,11.22
2023-05-21T04:32:49.656Z,11.18
2023-05-21T04:33:52.633Z,11.18
2023-05-21T04:34:49.589Z,11.19
2023-05-21T04:35:49.604Z,11.18
2023-05-21T04:37:49.572Z,11.19
2023-05-21T04:38:49.550Z,11.23
2023-05-21T04:39:49.506Z,11.23
2023-05-21T04:40:49.495Z,11.25
2023-05-21T04:41:49.503Z,11.25
2023-05-21T04:42:49.506Z,11.27
2023-05-21T04:43:49.492Z,11.30
2023-05-21T04:44:54.664Z,11.33
2023-05-21T04:45:49.446Z,11.33
2023-05-21T04:46:49.495Z,11.35
2023-05-21T04:47:49.478Z,11.37
2023-05-21T04:48:52.437Z,11.41
2023-05-21T04:49:49.553Z,11.44
2023-05-21T04:50:49.398Z,11.48
2023-05-21T04:51:49.478Z,11.50
2023-05-21T04:52:49.376Z,11.50
2023-05-21T04:53:49.389Z,11.52
2023-05-21T04:54:49.352Z,11.52
2023-05-21T04:55:49.348Z,11.52
2023-05-21T04:56:49.359Z,11.54
2023-05-21T04:57:49.352Z,11.52
2023-05-21T04:58:49.347Z,11.54
2023-05-21T04:59:49.377Z,11.57
2023-05-21T05:00:49.420Z,11.59
2023-05-21T05:01:49.279Z,11.62
2023-05-21T05:02:49.387Z,11.63
2023-05-21T05:03:52.322Z,11.65
2023-05-21T05:05:49.249Z,11.68
2023-05-21T05:06:49.247Z,11.69
2023-05-21T05:07:49.215Z,11.72
2023-05-21T05:08:49.262Z,11.73
2023-05-21T05:09:49.221Z,11.75
2023-05-21T05:10:49.212Z,11.78
2023-05-21T05:11:49.198Z,11.80
2023-05-21T05:12:49.226Z,11.83
2023-05-21T05:13:49.152Z,11.86
2023-05-21T05:14:49.168Z,11.88
2023-05-21T05:15:50.601Z,11.94
2023-05-21T05:16:49.207Z,11.99
2023-05-21T05:17:49.134Z,12.02
2023-05-21T05:18:52.137Z,12.04
2023-05-21T05:19:49.095Z,12.09
2023-05-21T05:20:49.081Z,12.13
2023-05-21T05:21:49.114Z,12.15
2023-05-21T05:22:49.054Z,12.18
2023-05-21T05:23:49.048Z,12.22
2023-05-21T05:24:49.029Z,12.25
2023-05-21T05:25:49.055Z,12.27
2023-05-21T05:26:49.017Z,12.31
2023-05-21T05:27:49.020Z,12.36
2023-05-21T05:28:49.055Z,12.37
2023-05-21T05:29:49.010Z,12.40
2023-05-21T05:30:49.119Z,12.43
2023-05-21T05:31:48.965Z,12.45
2023-05-21T05:32:49.080Z,12.47
2023-05-21T05:33:51.972Z,12.53
2023-05-21T05:34:48.937Z,12.54
2023-05-21T05:35:48.918Z,12.57
2023-05-21T05:36:48.941Z,12.60
2023-05-21T05:37:48.933Z,12.61
2023-05-21T05:38:48.932Z,12.65
2023-05-21T05:39:48.879Z,12.68
2023-05-21T05:40:48.867Z,12.73
2023-05-21T05:41:48.881Z,12.76
2023-05-21T05:42:48.839Z,12.80
2023-05-21T05:43:48.858Z,12.83
2023-05-21T05:44:48.862Z,12.87
2023-05-21T05:46:48.800Z,12.94
2023-05-21T05:47:48.827Z,13.00
2023-05-21T05:48:51.776Z,13.04
2023-05-21T05:49:48.798Z,13.09
2023-05-21T05:50:48.802Z,13.12
2023-05-21T05:51:48.784Z,13.16
2023-05-21T05:52:48.772Z,13.22
2023-05-21T05:53:48.752Z,13.25
2023-05-21T05:54:48.757Z,13.30
2023-05-21T05:55:48.769Z,13.37
2023-05-21T05:56:48.723Z,13.38
2023-05-21T05:57:48.677Z,13.41
2023-05-21T05:58:48.706Z,13.46
2023-05-21T05:59:48.719Z,13.52
2023-05-21T06:00:48.694Z,13.56
2023-05-21T06:01:48.672Z,13.59
2023-05-21T06:02:48.716Z,13.67
2023-05-21T06:03:51.669Z,13.71
2023-05-21T06:04:48.664Z,13.75
2023-05-21T06:06:48.626Z,13.81
2023-05-21T06:07:48.581Z,13.85
2023-05-21T06:08:48.605Z,13.87
2023-05-21T06:09:48.556Z,13.92
2023-05-21T06:10:48.586Z,13.96
2023-05-21T06:11:48.579Z,13.99
2023-05-21T06:12:48.539Z,14.03
2023-05-21T06:13:48.555Z,14.07
2023-05-21T06:14:48.540Z,14.08
2023-05-21T06:16:48.494Z,14.15
2023-05-21T06:17:48.585Z,14.17
2023-05-21T06:18:51.496Z,14.20
2023-05-21T06:19:48.458Z,14.25
2023-05-21T06:21:48.430Z,14.33
2023-05-21T06:22:48.441Z,14.35
2023-05-21T06:23:48.435Z,14.41
2023-05-21T06:24:48.401Z,14.48
2023-05-21T06:25:48.406Z,14.50
2023-05-21T06:26:48.402Z,14.55
2023-05-21T06:27:48.396Z,14.59
2023-05-21T06:29:48.364Z,14.69
2023-05-21T06:30:48.336Z,14.73
2023-05-21T06:31:48.419Z,14.79
2023-05-21T06:32:48.398Z,14.86
2023-05-21T06:33:51.411Z,14.88
2023-05-21T06:34:48.319Z,14.92
2023-05-21T06:36:48.281Z,15.02
2023-05-21T06:37:48.291Z,15.04
2023-05-21T06:38:48.291Z,15.09
2023-05-21T06:39:48.259Z,15.14
2023-05-21T06:41:48.245Z,15.21
2023-05-21T06:42:48.253Z,15.28
2023-05-21T06:43:48.222Z,15.33
2023-05-21T06:44:48.214Z,15.40
2023-05-21T06:45:48.204Z,15.46
2023-05-21T06:46:48.209Z,15.52
2023-05-21T06:47:48.265Z,15.59
2023-05-21T06:48:51.145Z,15.65
2023-05-21T06:49:48.192Z,15.76
2023-05-21T06:50:48.134Z,15.80
2023-05-21T06:51:48.157Z,15.83
2023-05-21T06:52:48.144Z,15.86
2023-05-21T06:53:48.134Z,15.91
2023-05-21T06:54:48.123Z,15.95
2023-05-21T06:55:48.101Z,16.04
2023-05-21T06:56:48.112Z,16.10
2023-05-21T06:57:48.078Z,16.16
2023-05-21T06:59:48.063Z,16.29
2023-05-21T07:00:48.066Z,16.29
2023-05-21T07:02:48.139Z,16.33
2023-05-21T07:03:50.995Z,16.39
2023-05-21T07:04:47.991Z,16.47
2023-05-21T07:05:47.994Z,16.53
2023-05-21T07:06:47.976Z,16.64
2023-05-21T07:07:48.006Z,16.71
2023-05-21T07:08:47.963Z,16.75
2023-05-21T07:09:47.952Z,16.83
2023-05-21T07:10:47.914Z,16.89
2023-05-21T07:11:47.926Z,16.94
2023-05-21T07:12:47.894Z,17.01
2023-05-21T07:13:47.910Z,17.09
2023-05-21T07:14:47.898Z,17.14
2023-05-21T07:16:47.867Z,17.31
2023-05-21T07:17:47.895Z,17.42
2023-05-21T07:18:50.912Z,17.52
2023-05-21T07:19:47.827Z,17.70
2023-05-21T07:20:47.835Z,17.86
2023-05-21T07:22:47.816Z,18.15
2023-05-21T07:23:47.845Z,18.37
2023-05-21T07:25:47.789Z,18.77
2023-05-21T07:27:47.726Z,19.08
2023-05-21T07:29:47.716Z,19.08
2023-05-21T07:30:47.750Z,19.24
2023-05-21T07:32:47.810Z,19.54
2023-05-21T07:33:50.673Z,19.76
2023-05-21T07:34:47.665Z,19.95
2023-05-21T07:35:47.658Z,20.19
2023-05-21T07:36:47.636Z,20.44
2023-05-21T07:37:47.689Z,20.67
2023-05-21T07:38:47.660Z,20.81
2023-05-21T07:39:47.615Z,20.74
2023-05-21T07:40:47.612Z,20.69
2023-05-21T07:41:47.588Z,20.74
2023-05-21T07:42:47.611Z,20.63
2023-05-21T07:43:47.619Z,20.66
2023-05-21T07:44:47.573Z,20.78
2023-05-21T07:45:47.547Z,20.80
2023-05-21T07:46:47.609Z,20.80
2023-05-21T07:47:47.622Z,20.97
2023-05-21T07:48:50.587Z,21.21
2023-05-21T07:50:47.508Z,21.69
2023-05-21T07:51:47.484Z,21.76
2023-05-21T07:52:47.560Z,21.93
2023-05-21T07:53:47.467Z,22.04
2023-05-21T07:54:47.473Z,22.07
2023-05-21T07:55:47.473Z,22.15
2023-05-21T07:57:47.442Z,22.26
2023-05-21T07:58:47.444Z,22.30
2023-05-21T07:59:47.514Z,22.36
2023-05-21T08:00:47.427Z,22.43
2023-05-21T08:01:47.390Z,22.44
2023-05-21T08:02:47.536Z,22.30
2023-05-21T08:03:50.571Z,22.18
2023-05-21T08:04:47.440Z,22.20
2023-05-21T08:05:47.385Z,22.18
2023-05-21T08:07:47.349Z,21.92
2023-05-21T08:08:47.338Z,21.80
2023-05-21T08:09:47.305Z,21.85
2023-05-21T08:10:47.316Z,22.06
2023-05-21T08:11:51.532Z,22.20
2023-05-21T08:13:47.280Z,22.17
2023-05-21T08:15:47.295Z,22.38
2023-05-21T08:16:47.332Z,22.55
2023-05-21T08:18:50.275Z,22.87
2023-05-21T08:20:47.177Z,23.00
2023-05-21T08:21:47.301Z,23.17
2023-05-21T08:22:47.154Z,23.32
2023-05-21T08:23:47.177Z,22.96
2023-05-21T08:25:47.163Z,22.65
2023-05-21T08:26:47.128Z,22.50
2023-05-21T08:28:47.106Z,22.73
2023-05-21T08:29:47.107Z,22.90
2023-05-21T08:30:47.120Z,22.93
2023-05-21T08:31:47.099Z,22.81
2023-05-21T08:32:47.169Z,22.78
2023-05-21T08:33:50.074Z,22.69
2023-05-21T08:34:47.072Z,22.57
2023-05-21T08:35:47.018Z,22.45
2023-05-21T08:36:47.625Z,22.50
2023-05-21T08:37:47.046Z,22.51
2023-05-21T08:38:47.003Z,22.47
2023-05-21T08:39:47.006Z,22.50
2023-05-21T08:41:46.966Z,22.50
2023-05-21T08:43:49.893Z,22.25
2023-05-21T08:44:46.948Z,22.29
2023-05-21T08:45:46.980Z,22.68
2023-05-21T08:46:46.944Z,23.00
2023-05-21T08:48:49.949Z,23.68
2023-05-21T08:49:46.885Z,23.98
2023-05-21T08:50:46.864Z,24.24
2023-05-21T08:51:46.893Z,24.39
2023-05-21T08:52:46.887Z,24.58
2023-05-21T08:53:46.834Z,24.47
2023-05-21T08:54:46.819Z,24.32
2023-05-21T08:55:46.844Z,24.20
2023-05-21T08:56:46.818Z,24.24
2023-05-21T08:57:46.834Z,24.23
2023-05-21T08:59:46.809Z,24.26
2023-05-21T09:01:46.836Z,24.66
2023-05-21T09:02:46.831Z,24.77
2023-05-21T09:03:49.773Z,24.86
2023-05-21T09:04:47.754Z,24.89
2023-05-21T09:06:46.739Z,24.50
2023-05-21T09:07:46.681Z,24.32
2023-05-21T09:08:46.672Z,24.24
2023-05-21T09:09:46.670Z,24.01
2023-05-21T09:11:46.635Z,24.02
2023-05-21T09:12:46.661Z,23.88
2023-05-21T09:14:47.811Z,23.95
2023-05-21T09:16:46.775Z,24.28
2023-05-21T09:17:46.646Z,24.55
2023-05-21T09:18:49.662Z,24.66
2023-05-21T09:19:46.603Z,24.86
2023-05-21T09:20:46.600Z,24.96
2023-05-21T09:21:46.596Z,25.03
2023-05-21T09:23:46.566Z,24.89
2023-05-21T09:24:46.643Z,24.91
2023-05-21T09:26:46.490Z,24.99
2023-05-21T09:27:46.496Z,25.06
2023-05-21T09:29:46.465Z,24.93
2023-05-21T09:31:46.866Z,25.14
2023-05-21T09:32:46.512Z,25.14
2023-05-21T09:33:49.401Z,25.06
2023-05-21T09:34:46.399Z,25.18
2023-05-21T09:35:46.415Z,25.32
2023-05-21T09:36:46.428Z,25.46
2023-05-21T09:37:46.414Z,25.53
2023-05-21T09:38:46.377Z,25.68
2023-05-21T09:39:46.339Z,25.73
2023-05-21T09:40:46.383Z,25.73
2023-05-21T09:41:46.321Z,25.77
2023-05-21T09:42:46.361Z,25.80
2023-05-21T09:43:46.306Z,25.84
2023-05-21T09:44:46.354Z,25.98
2023-05-21T09:46:46.291Z,25.96
2023-05-21T09:47:46.309Z,25.85
2023-05-21T09:48:49.289Z,25.73
2023-05-21T09:49:46.262Z,25.69
2023-05-21T09:50:46.227Z,25.72
2023-05-21T09:51:46.241Z,25.83
2023-05-21T09:52:46.230Z,25.98
2023-05-21T09:54:46.241Z,25.99
2023-05-21T09:56:46.163Z,26.05
2023-05-21T09:57:47.211Z,25.83
2023-05-21T09:58:46.185Z,25.70
2023-05-21T09:59:46.118Z,25.81
2023-05-21T10:00:46.107Z,25.81
2023-05-21T10:01:46.153Z,25.87
2023-05-21T10:02:46.202Z,25.80
2023-05-21T10:03:50.678Z,25.72
2023-05-21T10:04:46.133Z,25.66
2023-05-21T10:05:46.243Z,25.68
2023-05-21T10:06:46.054Z,25.66
2023-05-21T10:07:46.030Z,25.63
2023-05-21T10:08:46.048Z,25.53
2023-05-21T10:09:46.051Z,25.36
2023-05-21T10:10:46.033Z,25.36
2023-05-21T10:12:46.001Z,25.46
2023-05-21T10:13:45.981Z,25.35
2023-05-21T10:15:46.457Z,25.13
2023-05-21T10:17:46.106Z,24.80
2023-05-21T10:18:48.986Z,24.58
2023-05-21T10:19:45.928Z,24.45
2023-05-21T10:20:45.926Z,24.30
2023-05-21T10:21:46.016Z,24.20
2023-05-21T10:22:45.917Z,24.26
2023-05-21T10:23:45.885Z,24.21
2023-05-21T10:24:46.016Z,24.24
2023-05-21T10:25:45.858Z,24.33
2023-05-21T10:26:45.842Z,24.45
2023-05-21T10:27:45.832Z,24.66
2023-05-21T10:29:45.856Z,24.95
2023-05-21T10:30:49.969Z,24.91
2023-05-21T10:32:45.929Z,24.93
2023-05-21T10:33:48.783Z,25.21
2023-05-21T10:35:45.782Z,25.60
2023-05-21T10:36:45.764Z,25.73
2023-05-21T10:37:45.768Z,25.88
2023-05-21T10:38:45.710Z,25.98
2023-05-21T10:39:45.758Z,26.05
2023-05-21T10:40:45.761Z,26.05
2023-05-21T10:42:45.722Z,26.09
2023-05-21T10:43:45.690Z,26.07
2023-05-21T10:44:45.685Z,26.02
2023-05-21T10:45:45.683Z,25.87
2023-05-21T10:46:49.436Z,25.93
2023-05-21T10:47:45.681Z,26.03
2023-05-21T10:48:48.630Z,26.16
2023-05-21T10:50:45.644Z,26.40
2023-05-21T10:51:45.606Z,26.41
2023-05-21T10:52:45.570Z,26.41
2023-05-21T10:53:45.568Z,26.33
2023-05-21T10:55:45.545Z,26.40
2023-05-21T10:56:45.556Z,26.31
2023-05-21T10:57:45.549Z,26.31
2023-05-21T10:58:45.529Z,26.31
2023-05-21T11:00:45.483Z,26.19
2023-05-21T11:01:45.619Z,26.10
2023-05-21T11:02:45.603Z,26.05
2023-05-21T11:03:48.524Z,26.06
2023-05-21T11:04:45.511Z,25.98
2023-05-21T11:05:45.462Z,26.02
2023-05-21T11:06:45.454Z,26.13
2023-05-21T11:07:45.431Z,26.19
2023-05-21T11:08:45.412Z,26.18
2023-05-21T11:09:45.415Z,26.26
2023-05-21T11:10:45.419Z,26.33
2023-05-21T11:11:45.369Z,26.33
2023-05-21T11:12:45.373Z,26.25
2023-05-21T11:13:45.388Z,26.19
2023-05-21T11:15:45.394Z,25.90
2023-05-21T11:16:45.375Z,25.70
2023-05-21T11:18:48.352Z,25.66
2023-05-21T11:19:45.366Z,25.77
2023-05-21T11:21:45.293Z,25.95
2023-05-21T11:23:45.241Z,25.99
2023-05-21T11:24:45.270Z,26.00
2023-05-21T11:25:45.256Z,26.22
2023-05-21T11:26:45.311Z,26.40
2023-05-21T11:28:45.225Z,26.75
2023-05-21T11:29:45.292Z,26.90
2023-05-21T11:31:45.206Z,27.07
2023-05-21T11:32:45.208Z,27.10
2023-05-21T11:33:48.148Z,27.14
2023-05-21T11:34:45.186Z,27.08
2023-05-21T11:36:45.105Z,27.14
2023-05-21T11:37:45.139Z,27.21
2023-05-21T11:38:45.112Z,27.10
2023-05-21T11:39:45.114Z,27.11
2023-05-21T11:41:45.082Z,26.96
2023-05-21T11:42:45.048Z,26.92
2023-05-21T11:43:45.061Z,26.93
2023-05-21T11:44:45.187Z,26.96
2023-05-21T11:45:45.037Z,26.95
2023-05-21T11:46:45.460Z,26.95
2023-05-21T11:47:45.051Z,26.90
2023-05-21T11:48:47.986Z,26.75
2023-05-21T11:49:44.973Z,26.41
2023-05-21T11:51:44.965Z,26.25
2023-05-21T11:52:44.987Z,26.22
2023-05-21T11:53:44.935Z,26.31
2023-05-21T11:54:44.955Z,26.38
2023-05-21T11:55:44.951Z,26.38
2023-05-21T11:57:44.937Z,26.38
2023-05-21T11:59:44.897Z,26.34
2023-05-21T12:01:44.868Z,26.18
2023-05-21T12:02:44.964Z,26.18
2023-05-21T12:03:47.940Z,26.16
2023-05-21T12:04:44.863Z,26.07
2023-05-21T12:05:44.885Z,26.02
2023-05-21T12:06:44.828Z,25.96
2023-05-21T12:07:44.832Z,25.87
2023-05-21T12:09:44.927Z,25.99
2023-05-21T12:11:44.773Z,26.10
2023-05-21T12:12:54.899Z,26.06
2023-05-21T12:14:44.719Z,26.19
2023-05-21T12:15:44.708Z,26.31
2023-05-21T12:16:44.698Z,26.44
2023-05-21T12:17:44.708Z,26.56
2023-05-21T12:18:47.757Z,26.52
2023-05-21T12:19:44.704Z,26.47
2023-05-21T12:20:44.831Z,26.47
2023-05-21T12:21:44.663Z,26.53
2023-05-21T12:22:48.729Z,26.66
2023-05-21T12:23:44.667Z,26.78
2023-05-21T12:24:48.842Z,26.93
2023-05-21T12:26:44.679Z,27.00
2023-05-21T12:27:44.602Z,26.97
2023-05-21T12:29:44.629Z,27.07
2023-05-21T12:31:44.615Z,27.21
2023-05-21T12:33:47.564Z,27.11
2023-05-21T12:34:44.532Z,27.05
2023-05-21T12:36:44.516Z,27.18
2023-05-21T12:37:44.481Z,27.25
2023-05-21T12:38:44.449Z,27.26
2023-05-21T12:39:44.494Z,27.33
2023-05-21T12:41:44.481Z,27.26
2023-05-21T12:42:44.441Z,27.14
2023-05-21T12:44:44.437Z,27.15
2023-05-21T12:45:44.525Z,27.11
2023-05-21T12:46:44.411Z,26.90
2023-05-21T12:47:44.448Z,26.89
2023-05-21T12:50:45.354Z,27.05
2023-05-21T12:52:44.358Z,27.08
2023-05-21T12:53:44.310Z,27.07
2023-05-21T12:54:44.298Z,27.02
2023-05-21T12:55:44.311Z,26.88
2023-05-21T12:56:44.411Z,26.88
2023-05-21T12:57:44.399Z,26.84
2023-05-21T12:58:44.394Z,26.80
2023-05-21T12:59:45.238Z,26.77
2023-05-21T13:00:48.657Z,26.71
2023-05-21T13:01:44.268Z,26.55
2023-05-21T13:02:44.745Z,26.47
2023-05-21T13:05:44.211Z,26.53
2023-05-21T13:06:44.178Z,26.58
2023-05-21T13:07:44.196Z,26.56
2023-05-21T13:08:44.202Z,26.62
2023-05-21T13:09:44.218Z,26.59
2023-05-21T13:10:44.143Z,26.59
2023-05-21T13:11:44.151Z,26.56
2023-05-21T13:12:44.692Z,26.55
2023-05-21T13:13:44.094Z,26.53
2023-05-21T13:15:44.152Z,26.48
2023-05-21T13:17:44.099Z,26.47
2023-05-21T13:18:47.107Z,26.44
2023-05-21T13:19:44.045Z,26.45
2023-05-21T13:20:44.084Z,26.29
2023-05-21T13:22:44.047Z,26.21
2023-05-21T13:23:43.995Z,26.28
2023-05-21T13:24:43.983Z,26.25
2023-05-21T13:25:44.057Z,26.18
2023-05-21T13:26:43.958Z,26.10
2023-05-21T13:27:43.982Z,26.02
2023-05-21T13:28:43.978Z,26.06
2023-05-21T13:29:43.945Z,26.07
2023-05-21T13:30:43.932Z,26.13
2023-05-21T13:31:43.908Z,26.21
2023-05-21T13:32:43.965Z,26.29
2023-05-21T13:33:46.994Z,26.34
2023-05-21T13:35:43.905Z,26.22
2023-05-21T13:36:43.899Z,26.26
2023-05-21T13:37:43.849Z,26.34
2023-05-21T13:38:43.859Z,26.40
2023-05-21T13:40:44.000Z,26.26
2023-05-21T13:42:43.851Z,26.06
2023-05-21T13:43:43.845Z,26.05
2023-05-21T13:45:43.795Z,26.26
2023-05-21T13:46:43.821Z,26.28
2023-05-21T13:48:46.769Z,26.45
2023-05-21T13:50:43.717Z,26.53
2023-05-21T13:51:43.717Z,26.56
2023-05-21T13:52:43.726Z,26.70
2023-05-21T13:53:43.723Z,26.78
2023-05-21T13:55:43.687Z,27.08
2023-05-21T13:56:43.682Z,27.18
2023-05-21T13:57:43.727Z,27.25
2023-05-21T13:58:43.655Z,27.15
2023-05-21T13:59:43.656Z,27.05
2023-05-21T14:00:43.737Z,27.02
2023-05-21T14:02:44.850Z,26.89
2023-05-21T14:03:46.613Z,26.88
2023-05-21T14:05:43.553Z,26.84
2023-05-21T14:06:43.545Z,26.92
2023-05-21T14:07:43.586Z,27.00
2023-05-21T14:08:43.520Z,27.11
2023-05-21T14:09:43.522Z,27.22
2023-05-21T14:10:47.789Z,27.32
2023-05-21T14:11:43.554Z,27.42
2023-05-21T14:13:43.510Z,27.49
2023-05-21T14:14:43.482Z,27.45
2023-05-21T14:15:43.503Z,27.42
2023-05-21T14:16:43.486Z,27.42
2023-05-21T14:17:43.449Z,27.45
2023-05-21T14:18:46.465Z,27.45
2023-05-21T14:19:43.481Z,27.39
2023-05-21T14:21:43.563Z,27.32
2023-05-21T14:22:43.415Z,27.40
2023-05-21T14:23:43.393Z,27.49
2023-05-21T14:24:43.382Z,27.45
2023-05-21T14:25:43.381Z,27.33
2023-05-21T14:26:43.351Z,27.26
2023-05-21T14:27:43.359Z,27.18
2023-05-21T14:28:43.318Z,27.12
2023-05-21T14:29:43.396Z,27.10